createdAt,value
2023-02-04T00:01:39.502Z,1.20
2023-02-04T00:04:06.545Z,1.08
2023-02-04T00:06:33.565Z,0.90
2023-02-04T00:09:00.569Z,1.02
2023-02-04T00:11:27.607Z,1.48
2023-02-04T00:13:54.590Z,2.28
2023-02-04T00:16:21.669Z,1.33
2023-02-04T00:18:48.564Z,2.83
2023-02-04T00:21:15.673Z,0.85
2023-02-04T00:23:42.637Z,2.10
2023-02-04T00:26:09.580Z,1.17
2023-02-04T00:28:36.540Z,1.38
2023-02-04T00:31:03.676Z,1.75
2023-02-04T00:33:30.691Z,1.55
2023-02-04T00:35:57.650Z,1.90
2023-02-04T00:38:24.727Z,1.02
2023-02-04T00:40:51.887Z,1.13
2023-02-04T00:43:19.401Z,2.95
2023-02-04T00:45:46.459Z,1.02
2023-02-04T00:48:13.593Z,1.73
2023-02-04T00:50:40.592Z,1.73
2023-02-04T00:53:07.944Z,1.50
2023-02-04T00:55:34.893Z,1.25
2023-02-04T00:58:01.852Z,1.35
2023-02-04T01:00:29.141Z,1.27
2023-02-04T01:02:56.551Z,2.00
2023-02-04T01:05:23.563Z,1.20
2023-02-04T01:07:50.754Z,1.50
2023-02-04T01:10:18.101Z,1.98
2023-02-04T01:12:45.168Z,1.33
2023-02-04T01:15:12.539Z,2.47
2023-02-04T01:17:39.598Z,1.70
2023-02-04T01:20:07.152Z,3.75
2023-02-04T01:22:34.918Z,2.47
2023-02-04T01:25:02.341Z,1.50
2023-02-04T01:27:29.815Z,2.00
2023-02-04T01:29:57.021Z,3.17
2023-02-04T01:32:24.160Z,2.20
2023-02-04T01:34:51.088Z,2.38
2023-02-04T01:37:18.072Z,2.90
2023-02-04T01:39:45.004Z,2.00
2023-02-04T01:42:12.262Z,1.80
2023-02-04T01:44:39.687Z,1.98
2023-02-04T01:47:06.944Z,1.75
2023-02-04T01:49:34.014Z,1.98
2023-02-04T01:52:02.611Z,2.55
2023-02-04T01:54:29.689Z,3.08
2023-02-04T01:56:56.872Z,3.03
2023-02-04T01:59:24.289Z,5.18
2023-02-04T02:01:53.276Z,2.67
2023-02-04T02:04:40.417Z,3.47
2023-02-04T02:07:07.487Z,3.22
2023-02-04T02:09:34.854Z,2.33
2023-02-04T02:12:03.962Z,4.40
2023-02-04T02:14:31.122Z,5.47
2023-02-04T02:16:58.236Z,4.60
2023-02-04T02:19:32.406Z,3.53
2023-02-04T02:22:37.778Z,4.47
2023-02-04T02:27:36.853Z,3.10
2023-02-04T02:30:04.639Z,3.75
2023-02-04T02:32:31.830Z,5.05
2023-02-04T02:34:58.882Z,4.00
2023-02-04T02:37:25.885Z,4.28
2023-02-04T02:39:52.934Z,3.90
2023-02-04T02:42:20.949Z,3.53
2023-02-04T02:44:49.471Z,4.65
2023-02-04T02:47:19.946Z,3.85
2023-02-04T02:49:52.747Z,4.10
2023-02-04T02:52:20.382Z,4.18
2023-02-04T02:54:47.696Z,5.40
2023-02-04T02:57:18.962Z,4.47
2023-02-04T02:59:46.165Z,9.65
2023-02-04T03:02:18.818Z,5.45
2023-02-04T03:04:51.105Z,3.10
2023-02-04T03:07:19.098Z,2.58
2023-02-04T03:09:46.375Z,2.45
2023-02-04T03:12:13.393Z,4.50
2023-02-04T03:14:40.339Z,2.70
2023-02-04T03:17:10.722Z,3.05
2023-02-04T03:19:38.910Z,2.10
2023-02-04T03:22:06.760Z,2.58
2023-02-04T03:24:33.902Z,3.75
2023-02-04T03:27:01.447Z,3.30
2023-02-04T03:29:29.793Z,3.90
2023-02-04T03:31:59.940Z,2.83
2023-02-04T03:34:27.511Z,1.63
2023-02-04T03:36:54.641Z,1.80
2023-02-04T03:39:21.811Z,1.95
2023-02-04T03:41:48.907Z,1.55
2023-02-04T03:44:16.595Z,2.13
2023-02-04T03:46:43.826Z,2.15
2023-02-04T03:49:11.037Z,1.33
2023-02-04T03:51:37.951Z,1.70
2023-02-04T03:54:04.894Z,2.85
2023-02-04T03:56:31.787Z,4.70
2023-02-04T03:58:58.822Z,2.63
2023-02-04T04:01:25.975Z,1.98
2023-02-04T04:03:53.112Z,2.22
2023-02-04T04:06:20.070Z,2.33
2023-02-04T04:08:47.133Z,2.58
2023-02-04T04:11:14.339Z,3.67
2023-02-04T04:13:41.399Z,3.85
2023-02-04T04:16:09.082Z,4.32
2023-02-04T04:18:36.327Z,3.75
2023-02-04T04:21:03.294Z,4.88
2023-02-04T04:23:30.300Z,3.35
2023-02-04T04:25:57.521Z,2.60
2023-02-04T04:28:24.522Z,3.00
2023-02-04T04:30:51.897Z,3.97
2023-02-04T04:33:18.985Z,3.28
2023-02-04T04:35:45.963Z,3.92
2023-02-04T04:38:12.944Z,4.53
2023-02-04T04:40:39.849Z,3.45
2023-02-04T04:43:06.809Z,1.85
2023-02-04T04:45:34.118Z,2.72
2023-02-04T04:48:01.246Z,2.47
2023-02-04T04:50:28.357Z,2.17
2023-02-04T04:52:55.486Z,3.08
2023-02-04T04:55:22.541Z,2.58
2023-02-04T04:57:49.707Z,2.25
2023-02-04T05:00:19.041Z,2.25
2023-02-04T05:02:46.698Z,4.65
2023-02-04T05:05:14.429Z,1.85
2023-02-04T05:07:41.387Z,1.80
2023-02-04T05:10:08.794Z,1.70
2023-02-04T05:12:35.688Z,3.00
2023-02-04T05:15:02.981Z,2.58
2023-02-04T05:17:29.977Z,4.13
2023-02-04T05:19:57.082Z,2.75
2023-02-04T05:22:24.008Z,1.85
2023-02-04T05:24:51.034Z,4.28
2023-02-04T05:27:18.004Z,3.90
2023-02-04T05:29:45.004Z,5.00
2023-02-04T05:32:12.274Z,3.63
2023-02-04T05:34:40.051Z,4.15
2023-02-04T05:37:07.026Z,3.00
2023-02-04T05:39:34.008Z,6.85
2023-02-04T05:42:01.072Z,6.65
2023-02-04T05:44:28.282Z,5.65
2023-02-04T05:46:55.502Z,5.45
2023-02-04T05:49:23.921Z,4.82
2023-02-04T05:51:50.904Z,4.97
2023-02-04T05:54:20.552Z,3.55
2023-02-04T05:56:48.033Z,3.38
2023-02-04T05:59:15.044Z,4.63
2023-02-04T06:01:42.319Z,5.10
2023-02-04T06:04:09.400Z,8.10
2023-02-04T06:06:36.402Z,7.25
2023-02-04T06:09:04.186Z,4.65
2023-02-04T06:11:31.201Z,5.25
2023-02-04T06:13:59.550Z,7.65
2023-02-04T06:16:27.195Z,7.53
2023-02-04T06:18:54.317Z,9.27
2023-02-04T06:21:21.370Z,5.55
2023-02-04T06:23:48.306Z,5.32
2023-02-04T06:26:15.352Z,5.03
2023-02-04T06:28:42.555Z,5.22
2023-02-04T06:31:09.701Z,5.60
2023-02-04T06:33:37.288Z,5.85
2023-02-04T06:36:05.511Z,8.30
2023-02-04T06:38:32.777Z,10.52
2023-02-04T06:40:59.817Z,8.38
2023-02-04T06:43:28.069Z,13.20
2023-02-04T06:45:55.437Z,18.67
2023-02-04T06:48:22.681Z,12.95
2023-02-04T06:50:49.636Z,9.95
2023-02-04T06:53:16.646Z,16.25
2023-02-04T06:55:43.671Z,14.32
2023-02-04T06:58:10.696Z,7.55
2023-02-04T07:00:37.975Z,8.93
2023-02-04T07:03:07.237Z,14.13
2023-02-04T07:05:34.545Z,9.55
2023-02-04T07:08:01.725Z,5.22
2023-02-04T07:10:29.236Z,9.55
2023-02-04T07:12:56.455Z,6.30
2023-02-04T07:15:23.501Z,7.03
2023-02-04T07:17:50.666Z,13.38
2023-02-04T07:20:18.052Z,13.38
2023-02-04T07:22:45.138Z,13.57
2023-02-04T07:25:14.950Z,17.40
2023-02-04T07:27:42.076Z,19.35
2023-02-04T07:30:10.656Z,9.55
2023-02-04T07:32:37.745Z,8.60
2023-02-04T07:35:05.056Z,5.10
2023-02-04T07:37:32.156Z,21.15
2023-02-04T07:39:59.500Z,24.50
2023-02-04T07:42:28.342Z,16.77
2023-02-04T07:44:55.523Z,19.75
2023-02-04T07:47:22.477Z,18.35
2023-02-04T07:49:51.075Z,13.88
2023-02-04T07:52:18.234Z,15.52
2023-02-04T07:54:45.537Z,12.88
2023-02-04T07:57:12.679Z,11.60
2023-02-04T07:59:39.837Z,15.82
2023-02-04T08:02:07.245Z,11.93
2023-02-04T08:04:34.372Z,13.68
2023-02-04T08:07:01.342Z,8.48
2023-02-04T08:09:28.292Z,11.15
2023-02-04T08:11:55.307Z,13.38
2023-02-04T08:14:22.410Z,19.15
2023-02-04T08:16:49.416Z,22.60
2023-02-04T08:19:19.132Z,21.85
2023-02-04T08:21:46.216Z,15.55
2023-02-04T08:24:14.075Z,13.93
2023-02-04T08:26:42.260Z,13.18
2023-02-04T08:29:09.601Z,11.88
2023-02-04T08:31:37.731Z,15.88
2023-02-04T08:34:05.915Z,15.48
2023-02-04T08:36:33.528Z,15.45
2023-02-04T08:39:00.628Z,15.63
2023-02-04T08:41:27.608Z,13.95
2023-02-04T08:43:54.540Z,19.13
2023-02-04T08:46:22.121Z,18.80
2023-02-04T08:48:49.200Z,12.73
2023-02-04T08:51:17.032Z,16.88
2023-02-04T08:53:44.063Z,18.58
2023-02-04T08:56:15.791Z,20.92
2023-02-04T08:58:43.982Z,15.18
2023-02-04T09:01:13.959Z,15.70
2023-02-04T09:03:41.254Z,13.90
2023-02-04T09:06:08.860Z,18.25
2023-02-04T09:08:35.784Z,12.75
2023-02-04T09:11:03.115Z,16.33
2023-02-04T09:13:30.439Z,17.52
2023-02-04T09:15:57.605Z,16.88
2023-02-04T09:18:25.759Z,14.93
2023-02-04T09:20:53.309Z,18.90
2023-02-04T09:23:20.743Z,18.20
2023-02-04T09:25:48.093Z,18.10
2023-02-04T09:28:17.120Z,15.90
2023-02-04T09:30:46.118Z,11.70
2023-02-04T09:33:15.095Z,16.40
2023-02-04T09:35:42.310Z,11.07
2023-02-04T09:38:09.557Z,12.32
2023-02-04T09:40:44.513Z,16.38
2023-02-04T09:43:16.593Z,16.92
2023-02-04T09:45:43.809Z,17.45
2023-02-04T09:48:13.830Z,18.52
2023-02-04T09:50:41.720Z,10.63
2023-02-04T09:53:15.060Z,21.58
2023-02-04T09:55:45.446Z,15.65
2023-02-04T09:58:21.619Z,12.23
2023-02-04T10:01:09.648Z,11.80
2023-02-04T10:03:37.189Z,16.25
2023-02-04T10:06:04.461Z,9.65
2023-02-04T10:08:33.710Z,15.48
2023-02-04T10:11:01.299Z,15.50
2023-02-04T10:13:33.858Z,16.83
2023-02-04T10:16:01.952Z,17.73
2023-02-04T10:18:32.754Z,15.82
2023-02-04T10:21:18.263Z,15.93
2023-02-04T10:23:49.796Z,19.40
2023-02-04T10:26:18.176Z,13.20
2023-02-04T10:28:46.054Z,16.05
2023-02-04T10:31:33.519Z,10.93
2023-02-04T10:34:31.938Z,16.67
2023-02-04T10:36:59.089Z,9.45
2023-02-04T10:39:28.705Z,14.02
2023-02-04T10:41:57.416Z,13.00
2023-02-04T10:44:40.376Z,11.68
2023-02-04T10:47:17.897Z,16.55
2023-02-04T10:50:15.550Z,18.67
2023-02-04T10:52:45.878Z,14.13
2023-02-04T10:55:16.852Z,15.75
2023-02-04T10:57:46.763Z,14.02
2023-02-04T11:00:21.555Z,9.68
2023-02-04T11:03:02.111Z,16.02
2023-02-04T11:05:34.981Z,15.65
2023-02-04T11:08:03.775Z,14.57
2023-02-04T11:10:33.325Z,13.13
2023-02-04T11:13:04.273Z,13.32
2023-02-04T11:15:50.352Z,12.07
2023-02-04T11:18:20.785Z,15.20
2023-02-04T11:20:53.341Z,12.25
2023-02-04T11:23:26.246Z,11.73
2023-02-04T11:26:09.992Z,11.75
2023-02-04T11:28:47.749Z,15.80
2023-02-04T11:31:20.619Z,11.90
2023-02-04T11:33:49.475Z,13.55
2023-02-04T11:36:17.655Z,13.95
2023-02-04T11:38:49.993Z,16.05
2023-02-04T11:41:28.286Z,10.57
2023-02-04T11:43:57.359Z,12.48
2023-02-04T11:46:27.597Z,17.15
2023-02-04T11:48:56.258Z,15.18
2023-02-04T11:51:31.451Z,10.13
2023-02-04T11:53:58.570Z,11.27
2023-02-04T11:56:29.373Z,12.90
2023-02-04T11:58:58.535Z,9.30
2023-02-04T12:01:32.866Z,12.48
2023-02-04T12:04:04.607Z,9.27
2023-02-04T12:06:37.211Z,11.07
2023-02-04T12:09:05.393Z,8.52
2023-02-04T12:11:32.802Z,12.20
2023-02-04T12:14:10.265Z,8.90
2023-02-04T12:16:56.344Z,10.32
2023-02-04T12:19:25.619Z,11.05
2023-02-04T12:21:54.960Z,14.02
2023-02-04T12:24:22.110Z,17.50
2023-02-04T12:26:49.308Z,16.42
2023-02-04T12:29:16.838Z,12.35
2023-02-04T12:31:43.930Z,12.48
2023-02-04T12:34:11.044Z,12.38
2023-02-04T12:36:38.076Z,12.88
2023-02-04T12:39:05.140Z,14.45
2023-02-04T12:41:32.129Z,13.68
2023-02-04T12:44:01.249Z,13.18
2023-02-04T12:46:29.420Z,13.45
2023-02-04T12:48:56.985Z,10.32
2023-02-04T12:51:24.196Z,10.02
2023-02-04T12:53:51.165Z,11.55
2023-02-04T12:56:20.509Z,8.23
2023-02-04T12:58:47.427Z,13.55
2023-02-04T13:01:14.719Z,15.43
2023-02-04T13:03:42.034Z,12.88
2023-02-04T13:06:09.004Z,15.55
2023-02-04T13:08:35.976Z,15.88
2023-02-04T13:11:03.140Z,10.80
2023-02-04T13:13:30.393Z,15.10
2023-02-04T13:15:57.541Z,10.40
2023-02-04T13:18:24.540Z,14.32
2023-02-04T13:20:51.577Z,19.80
2023-02-04T13:23:18.726Z,14.18
2023-02-04T13:25:45.951Z,12.60
2023-02-04T13:28:14.012Z,16.13
2023-02-04T13:30:41.243Z,12.20
2023-02-04T13:33:08.217Z,14.18
2023-02-04T13:35:35.752Z,11.52
2023-02-04T13:38:02.838Z,11.30
2023-02-04T13:40:29.887Z,13.13
2023-02-04T13:42:56.845Z,14.75
2023-02-04T13:45:23.952Z,17.40
2023-02-04T13:47:52.383Z,11.70
2023-02-04T13:50:19.871Z,11.05
2023-02-04T13:52:46.931Z,12.27
2023-02-04T13:55:15.151Z,13.88
2023-02-04T13:57:42.168Z,13.65
2023-02-04T14:00:10.008Z,12.75
2023-02-04T14:02:37.222Z,12.73
2023-02-04T14:05:04.663Z,10.88
2023-02-04T14:07:33.465Z,12.52
2023-02-04T14:10:00.555Z,8.82
2023-02-04T14:12:27.509Z,12.52
2023-02-04T14:14:54.428Z,10.18
2023-02-04T14:17:21.486Z,13.77
2023-02-04T14:19:48.519Z,13.95
2023-02-04T14:22:15.591Z,14.60
2023-02-04T14:24:42.828Z,10.35
2023-02-04T14:27:10.442Z,10.43
2023-02-04T14:29:37.641Z,14.60
2023-02-04T14:32:05.036Z,10.50
2023-02-04T14:34:32.336Z,18.73
2023-02-04T14:36:59.456Z,11.77
2023-02-04T14:39:26.943Z,12.85
2023-02-04T14:41:54.119Z,14.35
2023-02-04T14:44:21.556Z,14.63
2023-02-04T14:46:49.480Z,14.18
2023-02-04T14:49:17.501Z,15.32
2023-02-04T14:51:44.888Z,12.73
2023-02-04T14:54:11.865Z,11.77
2023-02-04T14:56:38.978Z,11.95
2023-02-04T14:59:06.511Z,13.82
2023-02-04T15:01:34.153Z,12.48
2023-02-04T15:04:01.585Z,22.10
2023-02-04T15:06:28.547Z,14.23
2023-02-04T15:08:55.625Z,15.55
2023-02-04T15:11:22.696Z,14.90
2023-02-04T15:13:49.829Z,17.20
2023-02-04T15:16:16.969Z,13.18
2023-02-04T15:18:44.356Z,9.57
2023-02-04T15:21:11.619Z,12.30
2023-02-04T15:23:38.648Z,13.07
2023-02-04T15:26:05.609Z,10.50
2023-02-04T15:28:32.863Z,14.70
2023-02-04T15:30:59.902Z,11.00
2023-02-04T15:33:27.006Z,16.48
2023-02-04T15:35:53.917Z,14.10
2023-02-04T15:38:20.907Z,13.88
2023-02-04T15:40:47.893Z,11.45
2023-02-04T15:43:14.768Z,12.65
2023-02-04T15:45:43.905Z,13.55
2023-02-04T15:48:11.275Z,15.23
2023-02-04T15:50:39.150Z,18.95
2023-02-04T15:53:06.747Z,12.98
2023-02-04T15:55:33.943Z,17.77
2023-02-04T15:58:01.031Z,12.48
2023-02-04T16:00:28.172Z,13.70
2023-02-04T16:02:55.459Z,15.57
2023-02-04T16:05:23.254Z,14.13
2023-02-04T16:07:50.914Z,14.13
2023-02-04T16:10:18.822Z,15.20
2023-02-04T16:12:47.357Z,12.75
2023-02-04T16:15:15.251Z,19.27
2023-02-04T16:17:43.183Z,12.50
2023-02-04T16:20:10.919Z,11.77
2023-02-04T16:22:38.137Z,13.48
2023-02-04T16:25:06.715Z,12.02
2023-02-04T16:27:33.940Z,13.48
2023-02-04T16:30:01.078Z,13.13
2023-02-04T16:32:28.189Z,12.93
2023-02-04T16:34:56.794Z,14.05
2023-02-04T16:37:23.886Z,13.02
2023-02-04T16:39:52.056Z,13.40
2023-02-04T16:42:19.782Z,17.55
2023-02-04T16:44:47.065Z,12.93
2023-02-04T16:47:14.572Z,17.35
2023-02-04T16:49:44.741Z,15.73
2023-02-04T16:52:11.737Z,19.05
2023-02-04T16:54:38.948Z,22.50
2023-02-04T16:57:05.948Z,13.32
2023-02-04T16:59:33.172Z,15.07
2023-02-04T17:02:03.206Z,14.63
2023-02-04T17:04:32.410Z,10.45
2023-02-04T17:07:00.505Z,17.73
2023-02-04T17:09:28.115Z,14.80
2023-02-04T17:11:55.334Z,15.38
2023-02-04T17:14:24.739Z,14.82
2023-02-04T17:16:51.974Z,13.63
2023-02-04T17:19:20.942Z,17.13
2023-02-04T17:21:48.767Z,12.02
2023-02-04T17:24:16.087Z,10.63
2023-02-04T17:26:43.088Z,14.00
2023-02-04T17:29:12.925Z,17.23
2023-02-04T17:31:43.030Z,10.32
2023-02-04T17:34:10.823Z,14.48
2023-02-04T17:36:38.700Z,17.10
2023-02-04T17:39:07.404Z,13.15
2023-02-04T17:41:34.501Z,6.78
2023-02-04T17:44:03.392Z,14.27
2023-02-04T17:46:31.343Z,12.00
2023-02-04T17:48:59.003Z,13.70
2023-02-04T17:51:26.120Z,17.75
2023-02-04T17:53:53.186Z,15.00
2023-02-04T17:56:21.395Z,28.95
2023-02-04T17:58:49.511Z,11.25
2023-02-04T18:01:21.822Z,12.73
2023-02-04T18:03:50.053Z,14.82
2023-02-04T18:06:27.374Z,13.73
2023-02-04T18:09:01.445Z,15.48
2023-02-04T18:11:32.939Z,12.77
2023-02-04T18:14:10.529Z,14.85
2023-02-04T18:16:39.763Z,13.23
2023-02-04T18:19:18.592Z,12.80
2023-02-04T18:21:46.631Z,17.85
2023-02-04T18:24:30.681Z,16.73
2023-02-04T18:27:01.599Z,17.40
2023-02-04T18:29:36.862Z,15.15
2023-02-04T18:32:15.714Z,16.90
2023-02-04T18:34:51.000Z,13.95
2023-02-04T18:37:42.858Z,17.30
2023-02-04T18:40:09.874Z,21.38
2023-02-04T18:42:39.239Z,18.98
2023-02-04T18:45:25.486Z,25.13
2023-02-04T18:48:00.252Z,25.02
2023-02-04T18:50:30.883Z,17.35
2023-02-04T18:53:15.156Z,18.58
2023-02-04T18:55:45.078Z,22.38
2023-02-04T18:58:34.678Z,13.77
2023-02-04T19:01:07.998Z,19.75
2023-02-04T19:03:46.869Z,24.17
2023-02-04T19:06:27.467Z,19.30
2023-02-04T19:09:13.445Z,19.33
2023-02-04T19:11:46.130Z,17.60
2023-02-04T19:14:38.853Z,26.50
2023-02-04T19:17:16.966Z,20.33
2023-02-04T19:19:52.423Z,20.23
2023-02-04T19:22:32.086Z,15.13
2023-02-04T19:25:25.397Z,19.77
2023-02-04T19:27:55.950Z,20.77
2023-02-04T19:30:28.766Z,23.38
2023-02-04T19:32:57.545Z,28.83
2023-02-04T19:35:38.586Z,22.38
2023-02-04T19:38:40.834Z,27.52
2023-02-04T19:41:27.821Z,17.75
2023-02-04T19:44:26.941Z,37.55
2023-02-04T19:46:54.236Z,33.03
2023-02-04T19:49:24.609Z,20.02
2023-02-04T19:51:54.369Z,14.82
2023-02-04T19:54:34.499Z,14.93
2023-02-04T19:57:01.524Z,10.70
2023-02-04T19:59:35.678Z,16.90
2023-02-04T20:02:35.682Z,19.98
2023-02-04T20:05:15.950Z,17.48
2023-02-04T20:07:42.946Z,18.60
2023-02-04T20:10:24.282Z,16.13
2023-02-04T20:13:11.609Z,15.82
2023-02-04T20:15:38.770Z,32.63
2023-02-04T20:18:19.959Z,26.60
2023-02-04T20:20:47.385Z,26.55
2023-02-04T20:23:29.106Z,26.17
2023-02-04T20:25:57.058Z,45.00
2023-02-04T20:28:35.168Z,41.97
2023-02-04T20:31:15.472Z,24.85
2023-02-04T20:33:49.232Z,27.92
2023-02-04T20:36:40.641Z,27.43
2023-02-04T20:39:29.367Z,26.55
2023-02-04T20:42:27.486Z,24.45
2023-02-04T20:44:55.180Z,17.30
2023-02-04T20:47:26.171Z,22.10
2023-02-04T20:49:58.561Z,15.93
2023-02-04T20:53:20.828Z,21.17
2023-02-04T20:56:03.740Z,14.32
2023-02-04T20:58:36.940Z,20.60
2023-02-04T21:01:35.702Z,15.40
2023-02-04T21:04:23.122Z,12.98
2023-02-04T21:06:52.913Z,13.25
2023-02-04T21:09:23.922Z,15.25
2023-02-04T21:11:52.323Z,15.15
2023-02-04T21:14:19.982Z,17.92
2023-02-04T21:16:47.604Z,15.43
2023-02-04T21:19:15.021Z,14.15
2023-02-04T21:21:42.710Z,14.77
2023-02-04T21:24:10.243Z,20.63
2023-02-04T21:26:37.609Z,19.40
2023-02-04T21:29:04.734Z,19.10
2023-02-04T21:31:32.611Z,16.73
2023-02-04T21:34:00.007Z,17.77
2023-02-04T21:36:30.226Z,21.33
2023-02-04T21:38:58.408Z,18.15
2023-02-04T21:41:25.725Z,15.77
2023-02-04T21:43:53.853Z,14.95
2023-02-04T21:46:21.323Z,12.60
2023-02-04T21:48:48.509Z,17.63
2023-02-04T21:51:15.907Z,17.20
2023-02-04T21:53:42.898Z,21.83
2023-02-04T21:56:10.869Z,16.33
2023-02-04T21:58:38.673Z,19.08
2023-02-04T22:01:05.824Z,18.80
2023-02-04T22:03:33.184Z,18.33
2023-02-04T22:06:00.253Z,16.08
2023-02-04T22:08:27.365Z,20.13
2023-02-04T22:10:54.444Z,18.95
2023-02-04T22:13:39.893Z,20.73
2023-02-04T22:16:06.919Z,32.83
2023-02-04T22:18:33.910Z,26.48
2023-02-04T22:21:00.967Z,29.00
2023-02-04T22:23:27.899Z,23.95
2023-02-04T22:25:54.852Z,21.58
2023-02-04T22:28:21.880Z,25.55
2023-02-04T22:30:49.003Z,24.02
2023-02-04T22:33:16.113Z,21.65
2023-02-04T22:35:43.069Z,22.55
2023-02-04T22:38:10.045Z,24.05
2023-02-04T22:40:37.033Z,21.42
2023-02-04T22:43:04.885Z,20.38
2023-02-04T22:45:32.469Z,22.55
2023-02-04T22:47:59.837Z,21.35
2023-02-04T22:50:27.128Z,27.13
2023-02-04T22:52:54.180Z,25.50
2023-02-04T22:55:21.203Z,26.60
2023-02-04T22:57:48.224Z,15.88
2023-02-04T23:00:16.315Z,20.35
2023-02-04T23:02:43.428Z,23.08
2023-02-04T23:05:10.687Z,21.52
2023-02-04T23:07:37.769Z,23.80
2023-02-04T23:10:05.260Z,20.55
2023-02-04T23:12:32.374Z,16.05
2023-02-04T23:14:59.285Z,21.42
2023-02-04T23:17:26.290Z,20.42
2023-02-04T23:19:53.277Z,23.83
2023-02-04T23:22:20.394Z,25.75
2023-02-04T23:24:49.555Z,22.25
2023-02-04T23:27:16.978Z,16.90
2023-02-04T23:29:44.015Z,21.13
2023-02-04T23:32:11.255Z,23.38
2023-02-04T23:34:38.322Z,18.73
2023-02-04T23:37:05.365Z,17.02
2023-02-04T23:39:32.735Z,24.38
2023-02-04T23:41:59.729Z,17.83
2023-02-04T23:44:26.777Z,40.03
2023-02-04T23:46:54.516Z,32.15
2023-02-04T23:49:21.623Z,26.92
2023-02-04T23:51:48.546Z,28.70
2023-02-04T23:54:15.557Z,25.35
2023-02-04T23:56:42.471Z,20.83
2023-02-04T23:59:09.464Z,22.02
